Terminal Aerodrome Forecast
Issued by NWS Milwaukee/Sullivan, WI

Home | Current Version | Previous Version | Text Only | Print | Product List | Glossary On
Versions: 1 2 3 4 5 6 7 8 9 10 11 12 13 14 15 16 17 18 19 20 21 22 23 24 25 26 27 28 29 30 31 32 33 34 35 36 37 38 39 40 41 42 43 44 45 46 47 48 49 50
342
FTUS43 KMKX 230203 AAA
TAFMKE
TAF AMD
KMKE 230203Z 2302/2406 04005KT P6SM -TSRA SCT040 BKN070CB
     FM230400 08006KT 6SM -TSRA SCT040 BKN080CB
      TEMPO 2304/2308 2SM TSRA BR BKN025CB
     FM230800 33005KT P6SM VCSH BKN015
     FM231300 33008KT P6SM BKN040
     FM231900 29012KT P6SM FEW050=

USA.gov is the U.S. government's official web portal to all federal, state and local government web resources and services.